Dickinson's Hourly Summary for Sunday, May 13, 2018
Hour Temp
(f)
RH
(%)
Solar Rad.
(MJ/m2)
Rainfall
(in)
Wind
(mph)
5/13/2018 12:00 AM 76 86 0 0 1.83
5/13/2018 1:00 AM 76 88 0 0 1.38
5/13/2018 2:00 AM 76 88 0 0 1.5
5/13/2018 3:00 AM 75 90 0 0 0.33
5/13/2018 4:00 AM 75 92 0 0 0
5/13/2018 5:00 AM 74 94 0 0 0
5/13/2018 6:00 AM 74 95 0 0 0
5/13/2018 7:00 AM 73 96 0.02 0 0
5/13/2018 8:00 AM 74 91 0.32 0 0.22
5/13/2018 9:00 AM 78 77 1.05 0 3.99
5/13/2018 10:00 AM 81 69 0.94 0 5.44
5/13/2018 11:00 AM 82 65 2.07 0 5.78
5/13/2018 12:00 PM 83 60 2.93 0 6.3
5/13/2018 1:00 PM 84 59 2.88 0 6.33
5/13/2018 2:00 PM 84 56 3.13 0 6.82
5/13/2018 3:00 PM 84 65 1.96 0 5.84
5/13/2018 4:00 PM 84 59 2.61 0 6.99
5/13/2018 5:00 PM 84 59 2.15 0 7.25
5/13/2018 6:00 PM 83 63 1.65 0 7.05
5/13/2018 7:00 PM 81 66 0.74 0 6.9
5/13/2018 8:00 PM 79 72 0.19 0 5.69
5/13/2018 9:00 PM 78 79 0 0 4.74
5/13/2018 10:00 PM 77 83 0 0 4.21
5/13/2018 11:00 PM 77 84 0 0 3.61
Data Summary 78 76 22.64 0.00 3.84